Aviation Digital Data Service (ADDS)

Output produced by METARs form (2100 UTC 13 August 2020)
found at http://aviationweather.gov/metar/data/
 
METAR text: ETMN 132020Z 06008KT 9999 FEW060 BKN300 22/15 Q1013 BLU+BLU+
Conditions at: ETMN (NORDHOLZ (GER-NA, DE) observed 2020 UTC 13 August 2020
Temperature: 22.0°C (72°F)
Dewpoint: 15.0°C (59°F) [RH = 65%]
Pressure (altimeter): 29.91 inches Hg (1013.0 mb)
Winds: from the ENE (60 degrees) at 9 MPH (8 knots; 4.1 m/s)
Visibility: 6 or more miles (10+ km)
Ceiling: 30000 feet AGL
Clouds: few clouds at 6000 feet AGL
broken clouds at 30000 feet AGL
Weather: no significant weather observed at this time

Forecast for: AMD
Text: TAF AMD ETMN 131749Z 1317/1402 07010KT 9999 NSW FEW070 BKN360 BY ETGG
Forecast period: 1700 UTC 13 August 2020 to 0200 UTC 14 August 2020
Forecast type: FROM: standard forecast or significant change
Winds: from the ENE (70 degrees) at 12 MPH (10 knots; 5.1 m/s)
Visibility: 6 or more miles (10+ km)
Ceiling: 36000 feet AGL
Clouds: few clouds at 7000 feet AGL
broken clouds at 36000 feet AGL
Weather: NSW  (no significant weather)